createdAt,value
2023-04-07T00:00:39.683Z,4.70
2023-04-07T00:03:21.888Z,4.67
2023-04-07T00:05:51.037Z,4.68
2023-04-07T00:08:20.110Z,4.67
2023-04-07T00:10:49.165Z,4.64
2023-04-07T00:13:18.498Z,4.58
2023-04-07T00:15:47.482Z,4.54
2023-04-07T00:18:16.398Z,4.52
2023-04-07T00:20:45.366Z,4.48
2023-04-07T00:23:14.592Z,4.46
2023-04-07T00:25:43.632Z,4.44
2023-04-07T00:28:12.927Z,4.40
2023-04-07T00:30:41.922Z,4.38
2023-04-07T00:33:10.973Z,4.35
2023-04-07T00:35:39.913Z,4.33
2023-04-07T00:38:08.954Z,4.31
2023-04-07T00:40:37.877Z,4.27
2023-04-07T00:43:06.724Z,4.21
2023-04-07T00:45:36.409Z,4.16
2023-04-07T00:48:06.492Z,4.14
2023-04-07T00:50:35.599Z,4.11
2023-04-07T00:53:04.619Z,4.08
2023-04-07T00:55:33.724Z,4.06
2023-04-07T00:58:04.568Z,4.02
2023-04-07T01:00:37.657Z,3.96
2023-04-07T01:03:13.838Z,3.92
2023-04-07T01:05:51.218Z,3.89
2023-04-07T01:08:25.023Z,3.84
2023-04-07T01:10:57.194Z,3.81
2023-04-07T01:13:32.140Z,3.79
2023-04-07T01:16:05.259Z,3.73
2023-04-07T01:18:36.938Z,3.77
2023-04-07T01:21:11.162Z,3.74
2023-04-07T01:24:01.425Z,3.72
2023-04-07T01:26:32.903Z,3.70
2023-04-07T01:29:27.363Z,3.70
2023-04-07T01:32:00.237Z,3.71
2023-04-07T01:34:33.144Z,3.73
2023-04-07T01:37:03.981Z,3.75
2023-04-07T01:39:34.178Z,3.77
2023-04-07T01:42:06.867Z,3.78
2023-04-07T01:44:36.720Z,3.79
2023-04-07T01:47:06.099Z,3.82
2023-04-07T01:49:37.118Z,3.82
2023-04-07T01:52:07.718Z,3.82
2023-04-07T01:54:37.398Z,3.82
2023-04-07T01:57:06.334Z,3.82
2023-04-07T01:59:35.210Z,3.81
2023-04-07T02:02:04.315Z,3.82
2023-04-07T02:04:38.508Z,3.85
2023-04-07T02:07:12.381Z,3.88
2023-04-07T02:09:43.160Z,3.90
2023-04-07T02:12:15.890Z,3.92
2023-04-07T02:14:45.197Z,3.93
2023-04-07T02:17:16.428Z,3.94
2023-04-07T02:19:47.675Z,3.96
2023-04-07T02:22:17.845Z,3.98
2023-04-07T02:24:46.841Z,3.99
2023-04-07T02:27:15.767Z,4.00
2023-04-07T02:29:44.694Z,4.00
2023-04-07T02:32:13.642Z,4.00
2023-04-07T02:34:42.800Z,3.99
2023-04-07T02:37:11.836Z,3.99
2023-04-07T02:39:41.002Z,4.00
2023-04-07T02:42:10.030Z,4.00
2023-04-07T02:44:38.943Z,3.99
2023-04-07T02:47:08.190Z,3.98
2023-04-07T02:49:37.207Z,3.99
2023-04-07T02:52:06.436Z,4.00
2023-04-07T02:54:35.982Z,4.00
2023-04-07T02:57:05.261Z,4.01
2023-04-07T02:59:34.194Z,4.04
2023-04-07T03:02:03.377Z,4.06
2023-04-07T03:04:32.862Z,4.08
2023-04-07T03:07:01.732Z,4.11
2023-04-07T03:09:30.844Z,4.13
2023-04-07T03:11:59.810Z,4.16
2023-04-07T03:14:28.826Z,4.20
2023-04-07T03:16:57.976Z,4.22
2023-04-07T03:19:27.227Z,4.26
2023-04-07T03:21:56.136Z,4.30
2023-04-07T03:24:25.725Z,4.35
2023-04-07T03:26:55.573Z,4.39
2023-04-07T03:29:24.538Z,4.42
2023-04-07T03:31:53.510Z,4.43
2023-04-07T03:34:22.491Z,4.48
2023-04-07T03:36:51.499Z,4.53
2023-04-07T03:39:20.814Z,4.59
2023-04-07T03:41:49.819Z,4.62
2023-04-07T03:44:18.814Z,4.54
2023-04-07T03:46:49.946Z,4.51
2023-04-07T03:49:18.809Z,4.45
2023-04-07T03:51:47.946Z,4.46
2023-04-07T03:54:16.879Z,4.45
2023-04-07T03:56:45.899Z,4.40
2023-04-07T03:59:14.933Z,4.33
2023-04-07T04:01:43.895Z,4.25
2023-04-07T04:04:13.033Z,4.20
2023-04-07T04:06:42.205Z,4.21
2023-04-07T04:09:11.116Z,4.23
2023-04-07T04:11:40.090Z,4.23
2023-04-07T04:14:09.246Z,4.24
2023-04-07T04:16:38.188Z,4.24
2023-04-07T04:19:07.107Z,4.23
2023-04-07T04:21:36.029Z,4.17
2023-04-07T04:24:06.063Z,4.13
2023-04-07T04:26:34.991Z,4.18
2023-04-07T04:29:03.952Z,4.21
2023-04-07T04:31:33.087Z,4.27
2023-04-07T04:34:01.968Z,4.33
2023-04-07T04:36:31.054Z,4.36
2023-04-07T04:39:00.001Z,4.37
2023-04-07T04:41:28.919Z,4.30
2023-04-07T04:43:58.076Z,4.29
2023-04-07T04:46:26.990Z,4.23
2023-04-07T04:48:57.351Z,4.12
2023-04-07T04:51:26.644Z,4.07
2023-04-07T04:53:55.797Z,4.06
2023-04-07T04:56:25.141Z,4.00
2023-04-07T04:58:54.091Z,3.93
2023-04-07T05:01:23.006Z,3.94
2023-04-07T05:03:52.461Z,3.98
2023-04-07T05:06:21.568Z,3.99
2023-04-07T05:08:50.659Z,3.97
2023-04-07T05:11:21.051Z,4.05
2023-04-07T05:13:50.617Z,4.16
2023-04-07T05:16:19.895Z,4.28
2023-04-07T05:18:49.000Z,4.33
2023-04-07T05:21:19.698Z,4.30
2023-04-07T05:23:48.690Z,4.28
2023-04-07T05:26:17.774Z,4.36
2023-04-07T05:28:46.975Z,4.44
2023-04-07T05:31:15.908Z,4.49
2023-04-07T05:33:44.965Z,4.51
2023-04-07T05:36:13.986Z,4.46
2023-04-07T05:38:43.067Z,4.51
2023-04-07T05:41:12.343Z,4.61
2023-04-07T05:43:41.327Z,4.62
2023-04-07T05:46:10.345Z,4.64
2023-04-07T05:48:39.339Z,4.61
2023-04-07T05:51:08.395Z,4.59
2023-04-07T05:53:37.526Z,4.68
2023-04-07T05:56:06.947Z,4.77
2023-04-07T05:58:36.113Z,4.90
2023-04-07T06:01:05.243Z,5.03
2023-04-07T06:03:34.404Z,5.12
2023-04-07T06:06:03.752Z,5.10
2023-04-07T06:08:32.638Z,5.12
2023-04-07T06:11:01.636Z,5.18
2023-04-07T06:13:30.528Z,5.26
2023-04-07T06:15:59.592Z,5.29
2023-04-07T06:18:28.461Z,5.39
2023-04-07T06:20:57.429Z,5.46
2023-04-07T06:23:26.632Z,5.59
2023-04-07T06:25:55.944Z,5.69
2023-04-07T06:28:24.893Z,5.86
2023-04-07T06:30:54.008Z,5.99
2023-04-07T06:33:25.198Z,6.12
2023-04-07T06:35:54.285Z,6.25
2023-04-07T06:38:23.403Z,6.45
2023-04-07T06:40:52.816Z,6.53
2023-04-07T06:43:21.778Z,6.61
2023-04-07T06:45:50.813Z,6.87
2023-04-07T06:48:19.874Z,6.99
2023-04-07T06:50:50.416Z,7.00
2023-04-07T06:53:19.943Z,7.04
2023-04-07T06:55:48.932Z,7.12
2023-04-07T06:58:18.361Z,7.30
2023-04-07T07:00:47.432Z,7.50
2023-04-07T07:03:16.690Z,7.65
2023-04-07T07:05:45.765Z,7.78
2023-04-07T07:08:14.901Z,7.85
2023-04-07T07:10:44.103Z,7.94
2023-04-07T07:13:12.994Z,8.08
2023-04-07T07:15:42.623Z,8.33
2023-04-07T07:18:11.716Z,8.48
2023-04-07T07:20:40.832Z,8.54
2023-04-07T07:23:09.800Z,8.62
2023-04-07T07:25:38.839Z,8.65
2023-04-07T07:28:08.761Z,8.62
2023-04-07T07:30:41.105Z,8.66
2023-04-07T07:33:10.283Z,8.71
2023-04-07T07:35:39.856Z,8.54
2023-04-07T07:38:08.849Z,8.41
2023-04-07T07:40:37.777Z,8.57
2023-04-07T07:43:06.791Z,8.63
2023-04-07T07:45:35.916Z,8.66
2023-04-07T07:48:04.987Z,8.77
2023-04-07T07:50:33.806Z,8.76
2023-04-07T07:53:02.847Z,8.76
2023-04-07T07:55:31.757Z,8.57
2023-04-07T07:58:00.875Z,8.34
2023-04-07T08:00:30.308Z,8.35
2023-04-07T08:02:59.691Z,8.39
2023-04-07T08:05:28.731Z,8.59
2023-04-07T08:07:57.800Z,8.79
2023-04-07T08:10:26.709Z,8.78
2023-04-07T08:12:55.789Z,8.78
2023-04-07T08:15:25.070Z,8.97
2023-04-07T08:17:55.542Z,9.13
2023-04-07T08:20:25.433Z,9.18
2023-04-07T08:22:54.405Z,9.11
2023-04-07T08:25:23.453Z,8.96
2023-04-07T08:27:52.519Z,8.91
2023-04-07T08:30:21.987Z,9.00
2023-04-07T08:32:50.969Z,9.10
2023-04-07T08:35:20.397Z,9.18
2023-04-07T08:37:49.903Z,9.21
2023-04-07T08:40:18.823Z,9.32
2023-04-07T08:42:49.222Z,9.42
2023-04-07T08:45:19.501Z,9.26
2023-04-07T08:47:56.156Z,9.17
2023-04-07T08:50:27.213Z,9.06
2023-04-07T08:52:58.475Z,9.17
2023-04-07T08:55:27.721Z,9.42
2023-04-07T08:57:58.665Z,9.62
2023-04-07T09:00:29.888Z,9.90
2023-04-07T09:03:02.900Z,10.02
2023-04-07T09:05:32.603Z,9.98
2023-04-07T09:08:02.487Z,9.99
2023-04-07T09:10:31.525Z,10.05
2023-04-07T09:13:00.565Z,10.26
2023-04-07T09:15:32.528Z,10.58
2023-04-07T09:18:01.516Z,10.82
2023-04-07T09:20:57.476Z,10.83
2023-04-07T09:23:30.838Z,10.83
2023-04-07T09:26:01.258Z,10.95
2023-04-07T09:28:43.802Z,10.83
2023-04-07T09:31:12.820Z,10.71
2023-04-07T09:33:41.823Z,10.95
2023-04-07T09:36:11.856Z,11.12
2023-04-07T09:38:42.105Z,11.30
2023-04-07T09:41:13.125Z,11.36
2023-04-07T09:43:44.094Z,11.58
2023-04-07T09:46:15.316Z,11.73
2023-04-07T09:48:45.311Z,11.56
2023-04-07T09:51:16.144Z,11.40
2023-04-07T09:53:47.845Z,11.17
2023-04-07T09:56:18.330Z,10.96
2023-04-07T09:58:50.985Z,10.58
2023-04-07T10:01:21.052Z,10.41
2023-04-07T10:03:50.855Z,10.38
2023-04-07T10:06:21.303Z,10.53
2023-04-07T10:08:50.520Z,10.58
2023-04-07T10:11:20.325Z,10.74
2023-04-07T10:13:49.932Z,10.83
2023-04-07T10:16:19.885Z,10.95
2023-04-07T10:18:51.291Z,10.94
2023-04-07T10:21:20.499Z,10.80
2023-04-07T10:23:56.925Z,10.39
2023-04-07T10:26:30.678Z,10.06
2023-04-07T10:29:06.050Z,9.90
2023-04-07T10:31:35.630Z,9.94
2023-04-07T10:34:05.323Z,10.08
2023-04-07T10:36:34.849Z,10.14
2023-04-07T10:39:23.615Z,10.16
2023-04-07T10:41:52.749Z,10.17
2023-04-07T10:44:47.695Z,10.17
2023-04-07T10:47:17.057Z,10.18
2023-04-07T10:50:19.980Z,10.08
2023-04-07T10:52:51.952Z,10.01
2023-04-07T10:55:32.897Z,9.89
2023-04-07T10:58:22.049Z,9.80
2023-04-07T11:01:29.008Z,9.59
2023-04-07T11:04:01.809Z,9.49
2023-04-07T11:06:31.322Z,9.65
2023-04-07T11:09:00.208Z,9.75
2023-04-07T11:11:41.903Z,9.84
2023-04-07T11:14:11.124Z,9.92
2023-04-07T11:16:45.138Z,9.98
2023-04-07T11:19:14.039Z,10.01
2023-04-07T11:21:42.885Z,10.00
2023-04-07T11:24:31.427Z,9.96
2023-04-07T11:27:00.940Z,9.72
2023-04-07T11:29:30.663Z,9.49
2023-04-07T11:32:01.774Z,9.50
2023-04-07T11:34:32.047Z,9.54
2023-04-07T11:37:20.417Z,9.52
2023-04-07T11:39:55.009Z,9.64
2023-04-07T11:42:34.270Z,9.82
2023-04-07T11:45:04.653Z,9.89
2023-04-07T11:47:38.558Z,9.93
2023-04-07T11:50:09.328Z,9.96
2023-04-07T11:52:45.308Z,9.93
2023-04-07T11:55:21.987Z,9.88
2023-04-07T11:57:51.798Z,9.89
2023-04-07T12:00:21.751Z,9.97
2023-04-07T12:02:50.832Z,10.04
2023-04-07T12:05:20.479Z,10.10
2023-04-07T12:07:55.929Z,10.09
2023-04-07T12:10:26.390Z,10.01
2023-04-07T12:12:56.986Z,10.04
2023-04-07T12:15:28.054Z,10.10
2023-04-07T12:17:57.140Z,10.11
2023-04-07T12:20:27.026Z,10.07
2023-04-07T12:22:56.057Z,10.08
2023-04-07T12:25:25.232Z,10.14
2023-04-07T12:27:54.200Z,10.19
2023-04-07T12:30:23.313Z,10.15
2023-04-07T12:32:53.064Z,10.05
2023-04-07T12:35:22.323Z,10.03
2023-04-07T12:37:52.523Z,10.00
2023-04-07T12:40:21.742Z,9.96
2023-04-07T12:42:50.787Z,9.93
2023-04-07T12:45:19.920Z,9.86
2023-04-07T12:47:48.924Z,9.87
2023-04-07T12:50:18.109Z,9.90
2023-04-07T12:52:47.911Z,9.85
2023-04-07T12:55:16.957Z,9.79
2023-04-07T12:57:46.827Z,9.71
2023-04-07T13:00:16.281Z,9.68
2023-04-07T13:02:45.379Z,9.63
2023-04-07T13:05:14.509Z,9.58
2023-04-07T13:07:43.350Z,9.50
2023-04-07T13:10:12.252Z,9.48
2023-04-07T13:12:41.846Z,9.56
2023-04-07T13:15:11.058Z,9.61
2023-04-07T13:17:40.126Z,9.67
2023-04-07T13:20:11.049Z,9.72
2023-04-07T13:22:49.324Z,9.72
2023-04-07T13:25:24.668Z,9.69
2023-04-07T13:27:53.673Z,9.70
2023-04-07T13:30:23.016Z,9.78
2023-04-07T13:32:52.757Z,9.81
2023-04-07T13:35:21.976Z,9.78
2023-04-07T13:37:50.990Z,9.83
2023-04-07T13:40:20.316Z,9.85
2023-04-07T13:42:49.184Z,9.74
2023-04-07T13:45:18.267Z,9.57
2023-04-07T13:47:47.210Z,9.52
2023-04-07T13:50:16.271Z,9.55
2023-04-07T13:52:47.720Z,9.54
2023-04-07T13:55:19.692Z,9.48
2023-04-07T13:57:48.546Z,9.44
2023-04-07T14:00:19.079Z,9.42
2023-04-07T14:02:49.188Z,9.43
2023-04-07T14:05:18.469Z,9.34
2023-04-07T14:07:48.014Z,9.22
2023-04-07T14:10:17.156Z,9.08
2023-04-07T14:12:46.551Z,8.97
2023-04-07T14:15:17.051Z,8.92
2023-04-07T14:17:47.657Z,8.85
2023-04-07T14:20:16.928Z,8.83
2023-04-07T14:22:45.902Z,8.87
2023-04-07T14:25:15.005Z,8.88
2023-04-07T14:27:44.256Z,8.92
2023-04-07T14:30:14.836Z,8.94
2023-04-07T14:32:43.851Z,8.93
2023-04-07T14:35:12.920Z,8.93
2023-04-07T14:37:41.886Z,8.84
2023-04-07T14:40:11.992Z,8.80
2023-04-07T14:42:41.163Z,8.71
2023-04-07T14:45:12.272Z,8.65
2023-04-07T14:47:41.370Z,8.63
2023-04-07T14:50:12.020Z,8.61
2023-04-07T14:52:40.981Z,8.64
2023-04-07T14:55:10.437Z,8.68
2023-04-07T14:57:39.705Z,8.71
2023-04-07T15:00:11.330Z,8.62
2023-04-07T15:02:40.520Z,8.45
2023-04-07T15:05:11.045Z,8.33
2023-04-07T15:07:40.099Z,8.29
2023-04-07T15:10:10.824Z,8.32
2023-04-07T15:12:39.669Z,8.35
2023-04-07T15:15:09.700Z,8.40
2023-04-07T15:17:44.619Z,8.45
2023-04-07T15:20:14.124Z,8.52
2023-04-07T15:22:43.119Z,8.54
2023-04-07T15:25:12.187Z,8.58
2023-04-07T15:27:40.983Z,8.62
2023-04-07T15:30:11.545Z,8.60
2023-04-07T15:32:40.595Z,8.58
2023-04-07T15:35:10.252Z,8.55
2023-04-07T15:37:39.300Z,8.52
2023-04-07T15:40:10.473Z,8.51
2023-04-07T15:42:41.217Z,8.48
2023-04-07T15:45:12.383Z,8.41
2023-04-07T15:47:41.318Z,8.38
2023-04-07T15:50:11.728Z,8.27
2023-04-07T15:52:40.804Z,8.12
2023-04-07T15:55:11.413Z,8.08
2023-04-07T15:57:40.360Z,8.06
2023-04-07T16:00:11.156Z,8.02
2023-04-07T16:02:40.252Z,7.96
2023-04-07T16:05:09.958Z,7.95
2023-04-07T16:07:39.050Z,7.97
2023-04-07T16:10:11.764Z,7.98
2023-04-07T16:12:41.238Z,8.00
2023-04-07T16:15:11.244Z,7.98
2023-04-07T16:17:42.006Z,7.95
2023-04-07T16:20:14.076Z,7.93
2023-04-07T16:22:45.120Z,7.91
2023-04-07T16:25:15.034Z,7.88
2023-04-07T16:27:44.590Z,7.88
2023-04-07T16:30:15.723Z,7.91
2023-04-07T16:32:46.200Z,7.95
2023-04-07T16:35:16.167Z,7.98
2023-04-07T16:37:46.128Z,7.98
2023-04-07T16:40:15.792Z,7.96
2023-04-07T16:42:46.170Z,7.98
2023-04-07T16:45:15.420Z,7.99
2023-04-07T16:47:44.704Z,7.97
2023-04-07T16:50:13.751Z,7.96
2023-04-07T16:52:42.693Z,7.99
2023-04-07T16:55:11.915Z,8.01
2023-04-07T16:57:40.912Z,8.03
2023-04-07T17:00:11.958Z,8.06
2023-04-07T17:02:41.128Z,8.03
2023-04-07T17:05:11.024Z,8.04
2023-04-07T17:07:40.034Z,8.02
2023-04-07T17:10:10.963Z,8.01
2023-04-07T17:12:39.988Z,8.00
2023-04-07T17:15:10.522Z,8.00
2023-04-07T17:17:39.762Z,8.00
2023-04-07T17:20:10.948Z,7.99
2023-04-07T17:22:39.881Z,7.99
2023-04-07T17:25:11.226Z,7.97
2023-04-07T17:27:40.517Z,7.95
2023-04-07T17:30:11.411Z,7.95
2023-04-07T17:32:40.911Z,7.92
2023-04-07T17:35:10.549Z,7.90
2023-04-07T17:37:39.464Z,7.92
2023-04-07T17:40:10.855Z,7.92
2023-04-07T17:42:40.617Z,7.90
2023-04-07T17:45:11.356Z,7.90
2023-04-07T17:47:40.743Z,7.90
2023-04-07T17:50:11.545Z,7.87
2023-04-07T17:52:40.588Z,7.85
2023-04-07T17:55:11.800Z,7.83
2023-04-07T17:57:41.457Z,7.86
2023-04-07T18:00:11.905Z,7.86
2023-04-07T18:02:41.084Z,7.88
2023-04-07T18:05:13.835Z,7.87
2023-04-07T18:07:42.761Z,7.84
2023-04-07T18:10:12.550Z,7.85
2023-04-07T18:12:41.498Z,7.85
2023-04-07T18:15:11.472Z,7.84
2023-04-07T18:17:41.974Z,7.80
2023-04-07T18:20:12.578Z,7.80
2023-04-07T18:22:41.915Z,7.84
2023-04-07T18:25:11.747Z,7.88
2023-04-07T18:27:40.796Z,7.90
2023-04-07T18:30:11.927Z,7.91
2023-04-07T18:32:40.933Z,7.90
2023-04-07T18:35:10.535Z,7.90
2023-04-07T18:37:39.448Z,7.89
2023-04-07T18:40:10.360Z,7.92
2023-04-07T18:42:39.415Z,7.91
2023-04-07T18:45:10.312Z,7.93
2023-04-07T18:47:39.357Z,7.98
2023-04-07T18:50:10.217Z,8.00
2023-04-07T18:52:39.241Z,7.98
2023-04-07T18:55:10.390Z,7.99
2023-04-07T18:57:39.706Z,7.99
2023-04-07T19:00:10.499Z,7.99
2023-04-07T19:02:43.656Z,7.96
2023-04-07T19:05:13.535Z,7.99
2023-04-07T19:07:42.439Z,8.01
2023-04-07T19:10:11.418Z,8.01
2023-04-07T19:12:40.725Z,7.98
2023-04-07T19:15:11.381Z,7.94
2023-04-07T19:17:40.915Z,7.94
2023-04-07T19:20:11.095Z,7.94
2023-04-07T19:22:40.114Z,7.96
2023-04-07T19:25:10.274Z,7.96
2023-04-07T19:27:39.405Z,7.93
2023-04-07T19:30:10.856Z,7.92
2023-04-07T19:32:39.922Z,7.91
2023-04-07T19:35:10.654Z,7.88
2023-04-07T19:37:39.861Z,7.84
2023-04-07T19:40:10.416Z,7.80
2023-04-07T19:42:39.464Z,7.77
2023-04-07T19:45:10.194Z,7.77
2023-04-07T19:47:39.326Z,7.74
2023-04-07T19:50:11.180Z,7.79
2023-04-07T19:52:42.533Z,7.79
2023-04-07T19:55:13.457Z,7.77
2023-04-07T19:57:42.570Z,7.78
2023-04-07T20:00:13.087Z,7.77
2023-04-07T20:02:42.370Z,7.76
2023-04-07T20:05:11.471Z,7.76
2023-04-07T20:07:40.553Z,7.76
2023-04-07T20:10:10.678Z,7.76
2023-04-07T20:12:39.570Z,7.75
2023-04-07T20:15:10.765Z,7.75
2023-04-07T20:17:39.914Z,7.76
2023-04-07T20:20:10.785Z,7.78
2023-04-07T20:22:41.996Z,7.76
2023-04-07T20:25:11.452Z,7.75
2023-04-07T20:27:40.437Z,7.77
2023-04-07T20:30:10.552Z,7.73
2023-04-07T20:32:39.670Z,7.65
2023-04-07T20:35:11.232Z,7.60
2023-04-07T20:37:40.339Z,7.60
2023-04-07T20:40:11.653Z,7.58
2023-04-07T20:42:40.590Z,7.50
2023-04-07T20:45:11.879Z,7.49
2023-04-07T20:47:40.947Z,7.49
2023-04-07T20:50:10.887Z,7.50
2023-04-07T20:52:42.836Z,7.48
2023-04-07T20:55:12.254Z,7.51
2023-04-07T20:57:41.465Z,7.51
2023-04-07T21:00:11.512Z,7.48
2023-04-07T21:02:41.263Z,7.44
2023-04-07T21:05:11.100Z,7.39
2023-04-07T21:07:39.985Z,7.36
2023-04-07T21:10:11.676Z,7.35
2023-04-07T21:12:41.142Z,7.35
2023-04-07T21:15:11.326Z,7.36
2023-04-07T21:17:40.522Z,7.35
2023-04-07T21:20:11.536Z,7.32
2023-04-07T21:22:40.507Z,7.32
2023-04-07T21:25:10.594Z,7.35
2023-04-07T21:27:39.862Z,7.39
2023-04-07T21:30:13.227Z,7.36
2023-04-07T21:32:44.856Z,7.32
2023-04-07T21:35:13.956Z,7.28
2023-04-07T21:37:42.990Z,7.26
2023-04-07T21:40:12.784Z,7.24
2023-04-07T21:42:41.932Z,7.24
2023-04-07T21:45:12.634Z,7.21
2023-04-07T21:47:41.808Z,7.20
2023-04-07T21:50:12.961Z,7.23
2023-04-07T21:52:42.061Z,7.24
2023-04-07T21:55:11.420Z,7.23
2023-04-07T21:57:40.400Z,7.22
2023-04-07T22:00:12.162Z,7.23
2023-04-07T22:02:41.184Z,7.24
2023-04-07T22:05:11.149Z,7.24
2023-04-07T22:07:40.189Z,7.24
2023-04-07T22:10:10.997Z,7.24
2023-04-07T22:12:40.397Z,7.24
2023-04-07T22:15:12.560Z,7.13
2023-04-07T22:17:41.495Z,7.02
2023-04-07T22:20:12.274Z,6.92
2023-04-07T22:22:42.553Z,6.91
2023-04-07T22:25:11.492Z,6.92
2023-04-07T22:27:40.610Z,6.94
2023-04-07T22:30:11.753Z,6.95
2023-04-07T22:32:40.954Z,6.96
2023-04-07T22:35:10.681Z,6.97
2023-04-07T22:37:39.688Z,6.99
2023-04-07T22:40:10.500Z,6.99
2023-04-07T22:42:39.795Z,6.98
2023-04-07T22:45:10.422Z,7.00
2023-04-07T22:47:40.116Z,7.05
2023-04-07T22:50:11.178Z,7.08
2023-04-07T22:52:40.143Z,7.06
2023-04-07T22:55:10.508Z,7.06
2023-04-07T22:57:39.592Z,7.09
2023-04-07T23:00:11.925Z,7.14
2023-04-07T23:02:41.896Z,7.13
2023-04-07T23:05:11.326Z,7.08
2023-04-07T23:07:40.491Z,7.04
2023-04-07T23:10:10.785Z,7.00
2023-04-07T23:12:39.728Z,6.98
2023-04-07T23:15:10.578Z,6.95
2023-04-07T23:17:39.844Z,6.85
2023-04-07T23:20:11.147Z,6.74
2023-04-07T23:22:40.589Z,6.72
2023-04-07T23:25:10.550Z,6.75
2023-04-07T23:27:39.857Z,6.78
2023-04-07T23:30:11.075Z,6.77
2023-04-07T23:32:40.171Z,6.71
2023-04-07T23:35:10.884Z,6.66
2023-04-07T23:37:39.950Z,6.59
2023-04-07T23:40:11.909Z,6.56
2023-04-07T23:42:41.388Z,6.54
2023-04-07T23:45:11.596Z,6.57
2023-04-07T23:47:40.688Z,6.60
2023-04-07T23:50:11.365Z,6.62
2023-04-07T23:52:40.408Z,6.69
2023-04-07T23:55:10.586Z,6.77
2023-04-07T23:57:39.448Z,6.84
